sensor_id;sensor_type;location;lat;lon;timestamp;P1;durP1;ratioP1;P2;durP2;ratioP2
24873;SDS011;12945;42.648;23.370;2023-03-29T00:02:14;8.63;;;5.53;;
24873;SDS011;12945;42.648;23.370;2023-03-29T00:04:40;9.40;;;5.20;;
24873;SDS011;12945;42.648;23.370;2023-03-29T00:07:06;9.00;;;4.90;;
24873;SDS011;12945;42.648;23.370;2023-03-29T00:09:31;9.20;;;5.75;;
24873;SDS011;12945;42.648;23.370;2023-03-29T00:11:57;9.80;;;4.72;;
24873;SDS011;12945;42.648;23.370;2023-03-29T00:14:23;7.47;;;5.15;;
24873;SDS011;12945;42.648;23.370;2023-03-29T00:16:48;7.97;;;5.00;;
24873;SDS011;12945;42.648;23.370;2023-03-29T00:19:13;7.70;;;5.40;;
24873;SDS011;12945;42.648;23.370;2023-03-29T00:21:39;9.80;;;5.15;;
24873;SDS011;12945;42.648;23.370;2023-03-29T00:24:04;7.88;;;4.75;;
24873;SDS011;12945;42.648;23.370;2023-03-29T00:26:30;7.50;;;5.25;;
24873;SDS011;12945;42.648;23.370;2023-03-29T00:28:55;9.95;;;4.90;;
24873;SDS011;12945;42.648;23.370;2023-03-29T00:31:20;10.70;;;4.93;;
24873;SDS011;12945;42.648;23.370;2023-03-29T00:33:46;7.68;;;5.32;;
24873;SDS011;12945;42.648;23.370;2023-03-29T00:36:11;9.65;;;4.75;;
24873;SDS011;12945;42.648;23.370;2023-03-29T00:38:37;9.82;;;4.60;;
24873;SDS011;12945;42.648;23.370;2023-03-29T00:41:02;7.15;;;4.75;;
24873;SDS011;12945;42.648;23.370;2023-03-29T00:43:28;10.30;;;5.22;;
24873;SDS011;12945;42.648;23.370;2023-03-29T00:45:53;8.75;;;4.88;;
24873;SDS011;12945;42.648;23.370;2023-03-29T00:48:20;11.18;;;4.90;;
24873;SDS011;12945;42.648;23.370;2023-03-29T00:53:13;13.57;;;5.10;;
24873;SDS011;12945;42.648;23.370;2023-03-29T00:56:04;9.13;;;4.88;;
24873;SDS011;12945;42.648;23.370;2023-03-29T00:58:36;10.07;;;4.93;;
24873;SDS011;12945;42.648;23.370;2023-03-29T01:01:09;7.15;;;4.82;;
24873;SDS011;12945;42.648;23.370;2023-03-29T01:03:40;9.25;;;4.93;;
24873;SDS011;12945;42.648;23.370;2023-03-29T01:06:10;10.50;;;5.22;;
24873;SDS011;12945;42.648;23.370;2023-03-29T01:08:40;12.18;;;4.95;;
24873;SDS011;12945;42.648;23.370;2023-03-29T01:13:40;9.88;;;5.15;;
24873;SDS011;12945;42.648;23.370;2023-03-29T01:16:08;6.88;;;4.60;;
24873;SDS011;12945;42.648;23.370;2023-03-29T01:18:34;9.20;;;4.28;;
24873;SDS011;12945;42.648;23.370;2023-03-29T01:21:13;8.93;;;4.28;;
24873;SDS011;12945;42.648;23.370;2023-03-29T01:28:54;10.07;;;5.05;;
24873;SDS011;12945;42.648;23.370;2023-03-29T01:31:27;9.18;;;4.88;;
24873;SDS011;12945;42.648;23.370;2023-03-29T01:33:57;11.38;;;5.28;;
24873;SDS011;12945;42.648;23.370;2023-03-29T01:36:25;7.68;;;4.30;;
24873;SDS011;12945;42.648;23.370;2023-03-29T01:41:16;12.07;;;4.80;;
24873;SDS011;12945;42.648;23.370;2023-03-29T01:48:55;9.25;;;4.80;;
24873;SDS011;12945;42.648;23.370;2023-03-29T01:51:28;9.35;;;4.82;;
24873;SDS011;12945;42.648;23.370;2023-03-29T01:54:02;10.88;;;4.70;;
24873;SDS011;12945;42.648;23.370;2023-03-29T01:56:29;7.20;;;4.70;;
24873;SDS011;12945;42.648;23.370;2023-03-29T01:58:57;10.45;;;4.80;;
24873;SDS011;12945;42.648;23.370;2023-03-29T02:01:25;6.93;;;4.45;;
24873;SDS011;12945;42.648;23.370;2023-03-29T02:03:53;6.65;;;4.30;;
24873;SDS011;12945;42.648;23.370;2023-03-29T02:06:21;5.25;;;4.18;;
24873;SDS011;12945;42.648;23.370;2023-03-29T02:08:48;6.53;;;4.22;;
24873;SDS011;12945;42.648;23.370;2023-03-29T02:11:14;6.22;;;4.20;;
24873;SDS011;12945;42.648;23.370;2023-03-29T02:13:39;9.95;;;4.20;;
24873;SDS011;12945;42.648;23.370;2023-03-29T02:16:09;6.65;;;4.45;;
24873;SDS011;12945;42.648;23.370;2023-03-29T02:18:38;8.00;;;4.43;;
24873;SDS011;12945;42.648;23.370;2023-03-29T02:21:05;10.25;;;4.70;;
24873;SDS011;12945;42.648;23.370;2023-03-29T02:23:39;14.40;;;5.32;;
24873;SDS011;12945;42.648;23.370;2023-03-29T02:26:05;13.50;;;4.53;;
24873;SDS011;12945;42.648;23.370;2023-03-29T02:28:30;8.57;;;4.88;;
24873;SDS011;12945;42.648;23.370;2023-03-29T02:36:05;9.57;;;4.50;;
24873;SDS011;12945;42.648;23.370;2023-03-29T02:38:31;8.30;;;4.72;;
24873;SDS011;12945;42.648;23.370;2023-03-29T02:40:57;5.10;;;3.35;;
24873;SDS011;12945;42.648;23.370;2023-03-29T02:43:23;6.18;;;4.15;;
24873;SDS011;12945;42.648;23.370;2023-03-29T02:45:49;5.93;;;4.35;;
24873;SDS011;12945;42.648;23.370;2023-03-29T02:48:17;8.15;;;4.55;;
24873;SDS011;12945;42.648;23.370;2023-03-29T02:50:45;9.15;;;4.53;;
24873;SDS011;12945;42.648;23.370;2023-03-29T02:53:18;7.05;;;4.00;;
24873;SDS011;12945;42.648;23.370;2023-03-29T02:55:44;8.18;;;4.55;;
24873;SDS011;12945;42.648;23.370;2023-03-29T02:58:11;7.18;;;4.63;;
24873;SDS011;12945;42.648;23.370;2023-03-29T03:00:38;6.35;;;4.10;;
24873;SDS011;12945;42.648;23.370;2023-03-29T03:03:06;4.88;;;3.85;;
24873;SDS011;12945;42.648;23.370;2023-03-29T03:05:33;6.78;;;4.18;;
24873;SDS011;12945;42.648;23.370;2023-03-29T03:07:58;6.00;;;4.60;;
24873;SDS011;12945;42.648;23.370;2023-03-29T03:10:24;6.63;;;4.30;;
24873;SDS011;12945;42.648;23.370;2023-03-29T03:12:49;8.75;;;4.20;;
24873;SDS011;12945;42.648;23.370;2023-03-29T03:15:15;5.03;;;3.72;;
24873;SDS011;12945;42.648;23.370;2023-03-29T03:17:40;7.25;;;4.40;;
24873;SDS011;12945;42.648;23.370;2023-03-29T03:20:09;6.05;;;3.92;;
24873;SDS011;12945;42.648;23.370;2023-03-29T03:22:39;7.38;;;4.40;;
24873;SDS011;12945;42.648;23.370;2023-03-29T03:25:04;6.57;;;4.20;;
24873;SDS011;12945;42.648;23.370;2023-03-29T03:27:30;8.30;;;4.20;;
24873;SDS011;12945;42.648;23.370;2023-03-29T03:29:55;5.63;;;3.63;;
24873;SDS011;12945;42.648;23.370;2023-03-29T03:32:20;6.90;;;4.28;;
24873;SDS011;12945;42.648;23.370;2023-03-29T03:34:46;10.10;;;4.65;;
24873;SDS011;12945;42.648;23.370;2023-03-29T03:37:11;9.18;;;4.13;;
24873;SDS011;12945;42.648;23.370;2023-03-29T03:39:36;7.97;;;4.18;;
24873;SDS011;12945;42.648;23.370;2023-03-29T03:42:01;6.35;;;3.80;;
24873;SDS011;12945;42.648;23.370;2023-03-29T03:44:27;7.93;;;4.00;;
24873;SDS011;12945;42.648;23.370;2023-03-29T03:46:53;8.85;;;3.95;;
24873;SDS011;12945;42.648;23.370;2023-03-29T03:49:18;7.63;;;4.40;;
24873;SDS011;12945;42.648;23.370;2023-03-29T03:51:45;6.18;;;4.20;;
24873;SDS011;12945;42.648;23.370;2023-03-29T03:54:11;5.13;;;3.60;;
24873;SDS011;12945;42.648;23.370;2023-03-29T03:56:36;5.22;;;3.58;;
24873;SDS011;12945;42.648;23.370;2023-03-29T03:59:01;5.88;;;4.00;;
24873;SDS011;12945;42.648;23.370;2023-03-29T04:01:27;5.40;;;2.80;;
24873;SDS011;12945;42.648;23.370;2023-03-29T04:03:52;4.63;;;3.20;;
24873;SDS011;12945;42.648;23.370;2023-03-29T04:06:17;6.47;;;3.25;;
24873;SDS011;12945;42.648;23.370;2023-03-29T04:08:43;5.60;;;3.40;;
24873;SDS011;12945;42.648;23.370;2023-03-29T04:11:08;9.13;;;3.28;;
24873;SDS011;12945;42.648;23.370;2023-03-29T04:13:34;5.45;;;3.33;;
24873;SDS011;12945;42.648;23.370;2023-03-29T04:15:59;4.82;;;3.10;;
24873;SDS011;12945;42.648;23.370;2023-03-29T04:18:24;9.02;;;3.28;;
24873;SDS011;12945;42.648;23.370;2023-03-29T04:20:50;5.85;;;3.65;;
24873;SDS011;12945;42.648;23.370;2023-03-29T04:23:15;6.93;;;3.95;;
24873;SDS011;12945;42.648;23.370;2023-03-29T04:25:40;7.60;;;4.00;;
24873;SDS011;12945;42.648;23.370;2023-03-29T04:28:06;5.90;;;3.17;;
24873;SDS011;12945;42.648;23.370;2023-03-29T04:30:31;5.32;;;3.30;;
24873;SDS011;12945;42.648;23.370;2023-03-29T04:32:57;6.82;;;3.42;;
24873;SDS011;12945;42.648;23.370;2023-03-29T04:35:22;6.88;;;3.20;;
24873;SDS011;12945;42.648;23.370;2023-03-29T04:37:48;6.90;;;3.55;;
24873;SDS011;12945;42.648;23.370;2023-03-29T04:40:15;5.63;;;3.08;;
24873;SDS011;12945;42.648;23.370;2023-03-29T04:42:43;5.68;;;3.13;;
24873;SDS011;12945;42.648;23.370;2023-03-29T04:45:10;6.40;;;3.78;;
24873;SDS011;12945;42.648;23.370;2023-03-29T04:47:37;8.85;;;3.75;;
24873;SDS011;12945;42.648;23.370;2023-03-29T04:50:04;10.18;;;3.90;;
24873;SDS011;12945;42.648;23.370;2023-03-29T04:52:29;9.82;;;4.40;;
24873;SDS011;12945;42.648;23.370;2023-03-29T04:54:57;6.75;;;3.90;;
24873;SDS011;12945;42.648;23.370;2023-03-29T04:57:22;5.78;;;3.30;;
24873;SDS011;12945;42.648;23.370;2023-03-29T04:59:47;6.43;;;3.78;;
24873;SDS011;12945;42.648;23.370;2023-03-29T05:02:13;9.52;;;3.45;;
24873;SDS011;12945;42.648;23.370;2023-03-29T05:04:38;6.45;;;3.33;;
24873;SDS011;12945;42.648;23.370;2023-03-29T05:07:03;7.53;;;4.00;;
24873;SDS011;12945;42.648;23.370;2023-03-29T05:09:30;4.30;;;3.38;;
24873;SDS011;12945;42.648;23.370;2023-03-29T05:11:55;5.82;;;3.90;;
24873;SDS011;12945;42.648;23.370;2023-03-29T05:14:21;8.90;;;3.88;;
24873;SDS011;12945;42.648;23.370;2023-03-29T05:16:47;7.00;;;3.40;;
24873;SDS011;12945;42.648;23.370;2023-03-29T05:19:12;7.40;;;3.58;;
24873;SDS011;12945;42.648;23.370;2023-03-29T05:21:37;6.30;;;3.15;;
24873;SDS011;12945;42.648;23.370;2023-03-29T05:24:03;6.85;;;3.50;;
24873;SDS011;12945;42.648;23.370;2023-03-29T05:26:28;5.15;;;2.95;;
24873;SDS011;12945;42.648;23.370;2023-03-29T05:28:54;11.85;;;3.85;;
24873;SDS011;12945;42.648;23.370;2023-03-29T05:31:19;6.15;;;3.17;;
24873;SDS011;12945;42.648;23.370;2023-03-29T05:33:48;5.55;;;3.08;;
24873;SDS011;12945;42.648;23.370;2023-03-29T05:36:14;7.63;;;3.25;;
24873;SDS011;12945;42.648;23.370;2023-03-29T05:38:40;6.78;;;3.47;;
24873;SDS011;12945;42.648;23.370;2023-03-29T05:41:05;5.38;;;2.92;;
24873;SDS011;12945;42.648;23.370;2023-03-29T05:43:30;6.60;;;3.50;;
24873;SDS011;12945;42.648;23.370;2023-03-29T05:45:56;6.85;;;3.90;;
24873;SDS011;12945;42.648;23.370;2023-03-29T05:48:21;8.77;;;4.70;;
24873;SDS011;12945;42.648;23.370;2023-03-29T05:50:47;6.53;;;3.00;;
24873;SDS011;12945;42.648;23.370;2023-03-29T05:53:13;7.88;;;3.08;;
24873;SDS011;12945;42.648;23.370;2023-03-29T05:55:38;8.75;;;3.13;;
24873;SDS011;12945;42.648;23.370;2023-03-29T05:58:03;6.72;;;3.30;;
24873;SDS011;12945;42.648;23.370;2023-03-29T06:00:29;5.53;;;3.30;;
24873;SDS011;12945;42.648;23.370;2023-03-29T06:02:55;3.88;;;2.80;;
24873;SDS011;12945;42.648;23.370;2023-03-29T06:05:21;8.82;;;3.65;;
24873;SDS011;12945;42.648;23.370;2023-03-29T06:07:46;8.55;;;3.45;;
24873;SDS011;12945;42.648;23.370;2023-03-29T06:10:16;4.05;;;2.80;;
24873;SDS011;12945;42.648;23.370;2023-03-29T06:12:42;6.85;;;3.00;;
24873;SDS011;12945;42.648;23.370;2023-03-29T06:15:07;5.80;;;3.20;;
24873;SDS011;12945;42.648;23.370;2023-03-29T06:17:34;8.93;;;3.40;;
24873;SDS011;12945;42.648;23.370;2023-03-29T06:20:00;5.45;;;3.35;;
24873;SDS011;12945;42.648;23.370;2023-03-29T06:22:25;6.50;;;3.00;;
24873;SDS011;12945;42.648;23.370;2023-03-29T06:24:51;8.88;;;3.20;;
24873;SDS011;12945;42.648;23.370;2023-03-29T06:27:17;7.03;;;2.90;;
24873;SDS011;12945;42.648;23.370;2023-03-29T06:29:43;5.95;;;3.33;;
24873;SDS011;12945;42.648;23.370;2023-03-29T06:32:09;8.32;;;3.10;;
24873;SDS011;12945;42.648;23.370;2023-03-29T06:34:35;8.75;;;3.60;;
24873;SDS011;12945;42.648;23.370;2023-03-29T06:37:01;4.20;;;3.30;;
24873;SDS011;12945;42.648;23.370;2023-03-29T06:39:26;6.18;;;3.35;;
24873;SDS011;12945;42.648;23.370;2023-03-29T06:41:51;6.63;;;3.50;;
24873;SDS011;12945;42.648;23.370;2023-03-29T06:44:16;5.13;;;3.30;;
24873;SDS011;12945;42.648;23.370;2023-03-29T06:46:42;5.50;;;3.30;;
24873;SDS011;12945;42.648;23.370;2023-03-29T06:49:07;8.85;;;3.13;;
24873;SDS011;12945;42.648;23.370;2023-03-29T06:51:33;4.65;;;2.80;;
24873;SDS011;12945;42.648;23.370;2023-03-29T06:53:58;12.15;;;2.95;;
24873;SDS011;12945;42.648;23.370;2023-03-29T06:56:24;5.40;;;2.70;;
24873;SDS011;12945;42.648;23.370;2023-03-29T06:58:52;3.95;;;2.50;;
24873;SDS011;12945;42.648;23.370;2023-03-29T07:01:17;7.95;;;3.30;;
24873;SDS011;12945;42.648;23.370;2023-03-29T07:03:42;4.80;;;2.80;;
24873;SDS011;12945;42.648;23.370;2023-03-29T07:06:09;4.72;;;3.20;;
24873;SDS011;12945;42.648;23.370;2023-03-29T07:08:36;7.15;;;3.03;;
24873;SDS011;12945;42.648;23.370;2023-03-29T07:11:07;6.88;;;2.92;;
24873;SDS011;12945;42.648;23.370;2023-03-29T07:13:32;8.32;;;2.72;;
24873;SDS011;12945;42.648;23.370;2023-03-29T07:15:58;6.60;;;2.58;;
24873;SDS011;12945;42.648;23.370;2023-03-29T07:18:23;3.03;;;2.15;;
24873;SDS011;12945;42.648;23.370;2023-03-29T07:20:48;3.95;;;2.35;;
24873;SDS011;12945;42.648;23.370;2023-03-29T07:23:14;4.20;;;2.25;;
24873;SDS011;12945;42.648;23.370;2023-03-29T07:25:39;4.68;;;1.90;;
24873;SDS011;12945;42.648;23.370;2023-03-29T07:28:05;12.52;;;2.42;;
24873;SDS011;12945;42.648;23.370;2023-03-29T07:30:31;6.82;;;2.17;;
24873;SDS011;12945;42.648;23.370;2023-03-29T07:32:56;7.10;;;2.47;;
24873;SDS011;12945;42.648;23.370;2023-03-29T07:35:22;7.50;;;2.50;;
24873;SDS011;12945;42.648;23.370;2023-03-29T07:37:49;4.93;;;2.55;;
24873;SDS011;12945;42.648;23.370;2023-03-29T07:40:15;7.72;;;2.58;;
24873;SDS011;12945;42.648;23.370;2023-03-29T07:42:47;2.58;;;2.05;;
24873;SDS011;12945;42.648;23.370;2023-03-29T07:45:13;3.95;;;2.35;;
24873;SDS011;12945;42.648;23.370;2023-03-29T07:47:40;11.00;;;2.75;;
24873;SDS011;12945;42.648;23.370;2023-03-29T07:50:06;2.78;;;1.85;;
24873;SDS011;12945;42.648;23.370;2023-03-29T07:52:32;7.50;;;2.83;;
24873;SDS011;12945;42.648;23.370;2023-03-29T07:54:57;5.32;;;2.22;;
24873;SDS011;12945;42.648;23.370;2023-03-29T07:57:23;5.18;;;2.58;;
24873;SDS011;12945;42.648;23.370;2023-03-29T07:59:48;9.02;;;2.35;;
24873;SDS011;12945;42.648;23.370;2023-03-29T08:02:13;4.40;;;2.03;;
24873;SDS011;12945;42.648;23.370;2023-03-29T08:04:39;5.15;;;2.10;;
24873;SDS011;12945;42.648;23.370;2023-03-29T08:07:05;3.85;;;2.13;;
24873;SDS011;12945;42.648;23.370;2023-03-29T08:09:30;3.15;;;2.08;;
24873;SDS011;12945;42.648;23.370;2023-03-29T08:11:56;3.47;;;1.88;;
24873;SDS011;12945;42.648;23.370;2023-03-29T08:14:21;4.20;;;2.20;;
24873;SDS011;12945;42.648;23.370;2023-03-29T08:16:47;4.47;;;2.13;;
24873;SDS011;12945;42.648;23.370;2023-03-29T08:19:13;4.68;;;2.00;;
24873;SDS011;12945;42.648;23.370;2023-03-29T08:21:38;4.03;;;2.00;;
24873;SDS011;12945;42.648;23.370;2023-03-29T08:24:04;3.92;;;1.90;;
24873;SDS011;12945;42.648;23.370;2023-03-29T08:26:29;7.13;;;2.22;;
24873;SDS011;12945;42.648;23.370;2023-03-29T08:28:55;6.40;;;2.30;;
24873;SDS011;12945;42.648;23.370;2023-03-29T08:31:20;7.80;;;2.10;;
24873;SDS011;12945;42.648;23.370;2023-03-29T08:33:46;8.93;;;2.10;;
24873;SDS011;12945;42.648;23.370;2023-03-29T08:36:11;5.55;;;1.95;;
24873;SDS011;12945;42.648;23.370;2023-03-29T08:38:37;6.57;;;2.25;;
24873;SDS011;12945;42.648;23.370;2023-03-29T08:41:07;5.28;;;1.70;;
24873;SDS011;12945;42.648;23.370;2023-03-29T08:43:40;3.08;;;2.00;;
24873;SDS011;12945;42.648;23.370;2023-03-29T08:48:56;3.42;;;2.05;;
24873;SDS011;12945;42.648;23.370;2023-03-29T08:51:25;4.22;;;2.05;;
24873;SDS011;12945;42.648;23.370;2023-03-29T08:53:53;6.50;;;2.15;;
24873;SDS011;12945;42.648;23.370;2023-03-29T08:56:22;6.43;;;1.98;;
24873;SDS011;12945;42.648;23.370;2023-03-29T08:58:49;5.90;;;2.10;;
24873;SDS011;12945;42.648;23.370;2023-03-29T09:01:15;6.03;;;1.60;;
24873;SDS011;12945;42.648;23.370;2023-03-29T09:03:44;4.65;;;2.17;;
24873;SDS011;12945;42.648;23.370;2023-03-29T09:06:12;3.65;;;1.92;;
24873;SDS011;12945;42.648;23.370;2023-03-29T09:08:41;4.93;;;1.60;;
24873;SDS011;12945;42.648;23.370;2023-03-29T09:13:48;5.18;;;1.58;;
24873;SDS011;12945;42.648;23.370;2023-03-29T09:16:24;5.47;;;1.85;;
24873;SDS011;12945;42.648;23.370;2023-03-29T09:31:26;5.28;;;2.47;;
24873;SDS011;12945;42.648;23.370;2023-03-29T09:33:56;4.28;;;1.70;;
24873;SDS011;12945;42.648;23.370;2023-03-29T09:39:07;3.00;;;1.67;;
24873;SDS011;12945;42.648;23.370;2023-03-29T09:44:15;5.35;;;2.17;;
24873;SDS011;12945;42.648;23.370;2023-03-29T09:46:46;3.22;;;1.92;;
24873;SDS011;12945;42.648;23.370;2023-03-29T09:49:17;4.75;;;1.75;;
24873;SDS011;12945;42.648;23.370;2023-03-29T09:51:45;3.70;;;1.70;;
24873;SDS011;12945;42.648;23.370;2023-03-29T09:54:12;4.72;;;2.00;;
24873;SDS011;12945;42.648;23.370;2023-03-29T09:56:38;3.45;;;1.75;;
24873;SDS011;12945;42.648;23.370;2023-03-29T09:59:03;3.65;;;1.98;;
24873;SDS011;12945;42.648;23.370;2023-03-29T10:01:33;4.35;;;1.98;;
24873;SDS011;12945;42.648;23.370;2023-03-29T10:04:01;4.55;;;1.67;;
24873;SDS011;12945;42.648;23.370;2023-03-29T10:06:26;5.20;;;1.75;;
24873;SDS011;12945;42.648;23.370;2023-03-29T10:08:52;3.95;;;1.85;;
24873;SDS011;12945;42.648;23.370;2023-03-29T10:11:29;6.25;;;1.75;;
24873;SDS011;12945;42.648;23.370;2023-03-29T10:13:59;9.77;;;1.70;;
24873;SDS011;12945;42.648;23.370;2023-03-29T10:16:31;5.20;;;1.58;;
24873;SDS011;12945;42.648;23.370;2023-03-29T10:18:57;6.18;;;1.65;;
24873;SDS011;12945;42.648;23.370;2023-03-29T10:21:23;2.85;;;1.80;;
24873;SDS011;12945;42.648;23.370;2023-03-29T10:23:48;3.97;;;1.80;;
24873;SDS011;12945;42.648;23.370;2023-03-29T10:26:25;5.78;;;2.00;;
24873;SDS011;12945;42.648;23.370;2023-03-29T10:28:52;3.58;;;1.77;;
24873;SDS011;12945;42.648;23.370;2023-03-29T10:31:19;3.85;;;1.58;;
24873;SDS011;12945;42.648;23.370;2023-03-29T10:33:49;1.85;;;1.20;;
24873;SDS011;12945;42.648;23.370;2023-03-29T10:36:15;5.60;;;1.55;;
24873;SDS011;12945;42.648;23.370;2023-03-29T10:38:40;3.80;;;1.58;;
24873;SDS011;12945;42.648;23.370;2023-03-29T10:41:09;4.05;;;1.70;;
24873;SDS011;12945;42.648;23.370;2023-03-29T10:48:56;1.65;;;1.15;;
24873;SDS011;12945;42.648;23.370;2023-03-29T10:51:22;6.32;;;2.03;;
24873;SDS011;12945;42.648;23.370;2023-03-29T10:53:47;6.03;;;1.60;;
24873;SDS011;12945;42.648;23.370;2023-03-29T10:58:48;7.32;;;1.90;;
24873;SDS011;12945;42.648;23.370;2023-03-29T11:01:24;5.57;;;1.95;;
24873;SDS011;12945;42.648;23.370;2023-03-29T11:06:25;9.25;;;1.80;;
24873;SDS011;12945;42.648;23.370;2023-03-29T11:08:53;5.10;;;1.73;;
24873;SDS011;12945;42.648;23.370;2023-03-29T11:32:04;2.25;;;1.50;;
24873;SDS011;12945;42.648;23.370;2023-03-29T11:42:15;2.33;;;1.42;;
24873;SDS011;12945;42.648;23.370;2023-03-29T11:44:42;4.70;;;1.67;;
24873;SDS011;12945;42.648;23.370;2023-03-29T11:47:09;4.30;;;1.45;;
24873;SDS011;12945;42.648;23.370;2023-03-29T11:49:37;4.53;;;1.58;;
24873;SDS011;12945;42.648;23.370;2023-03-29T11:54:41;3.97;;;1.85;;
24873;SDS011;12945;42.648;23.370;2023-03-29T12:02:27;2.93;;;1.50;;
24873;SDS011;12945;42.648;23.370;2023-03-29T12:04:56;7.30;;;2.13;;
24873;SDS011;12945;42.648;23.370;2023-03-29T12:09:57;2.97;;;1.73;;
24873;SDS011;12945;42.648;23.370;2023-03-29T12:12:25;4.95;;;1.92;;
24873;SDS011;12945;42.648;23.370;2023-03-29T12:14:54;2.90;;;1.92;;
24873;SDS011;12945;42.648;23.370;2023-03-29T12:17:26;3.63;;;1.52;;
24873;SDS011;12945;42.648;23.370;2023-03-29T12:22:36;5.28;;;2.13;;
24873;SDS011;12945;42.648;23.370;2023-03-29T12:25:02;3.60;;;1.60;;
24873;SDS011;12945;42.648;23.370;2023-03-29T12:27:40;5.95;;;1.70;;
24873;SDS011;12945;42.648;23.370;2023-03-29T12:33:07;3.67;;;1.58;;
24873;SDS011;12945;42.648;23.370;2023-03-29T12:38:19;3.22;;;1.60;;
24873;SDS011;12945;42.648;23.370;2023-03-29T12:40:46;5.90;;;1.65;;
24873;SDS011;12945;42.648;23.370;2023-03-29T12:43:20;4.10;;;1.65;;
24873;SDS011;12945;42.648;23.370;2023-03-29T12:45:47;4.43;;;1.42;;
24873;SDS011;12945;42.648;23.370;2023-03-29T12:48:18;5.13;;;1.50;;
24873;SDS011;12945;42.648;23.370;2023-03-29T12:53:16;2.78;;;1.58;;
24873;SDS011;12945;42.648;23.370;2023-03-29T12:58:23;4.95;;;1.95;;
24873;SDS011;12945;42.648;23.370;2023-03-29T13:00:55;5.28;;;2.20;;
24873;SDS011;12945;42.648;23.370;2023-03-29T13:03:28;4.30;;;1.55;;
24873;SDS011;12945;42.648;23.370;2023-03-29T13:05:57;6.35;;;1.58;;
24873;SDS011;12945;42.648;23.370;2023-03-29T13:08:27;2.50;;;1.80;;
24873;SDS011;12945;42.648;23.370;2023-03-29T13:10:56;3.00;;;1.63;;
24873;SDS011;12945;42.648;23.370;2023-03-29T13:13:23;2.63;;;1.80;;
24873;SDS011;12945;42.648;23.370;2023-03-29T13:15:51;1.88;;;1.27;;
24873;SDS011;12945;42.648;23.370;2023-03-29T13:18:35;4.43;;;2.17;;
24873;SDS011;12945;42.648;23.370;2023-03-29T13:24:00;7.18;;;1.83;;
24873;SDS011;12945;42.648;23.370;2023-03-29T13:39:47;5.75;;;1.73;;
24873;SDS011;12945;42.648;23.370;2023-03-29T13:44:42;3.17;;;1.80;;
24873;SDS011;12945;42.648;23.370;2023-03-29T13:49:51;6.88;;;2.10;;
24873;SDS011;12945;42.648;23.370;2023-03-29T13:54:53;3.33;;;1.80;;
24873;SDS011;12945;42.648;23.370;2023-03-29T13:57:37;4.10;;;1.73;;
24873;SDS011;12945;42.648;23.370;2023-03-29T14:02:36;3.90;;;1.77;;
24873;SDS011;12945;42.648;23.370;2023-03-29T14:05:05;2.90;;;1.60;;
24873;SDS011;12945;42.648;23.370;2023-03-29T14:07:32;3.03;;;1.60;;
24873;SDS011;12945;42.648;23.370;2023-03-29T14:10:01;6.03;;;2.05;;
24873;SDS011;12945;42.648;23.370;2023-03-29T14:12:29;8.18;;;1.88;;
24873;SDS011;12945;42.648;23.370;2023-03-29T14:14:56;2.97;;;1.70;;
24873;SDS011;12945;42.648;23.370;2023-03-29T14:17:24;4.85;;;1.90;;
24873;SDS011;12945;42.648;23.370;2023-03-29T14:19:50;6.20;;;1.70;;
24873;SDS011;12945;42.648;23.370;2023-03-29T14:22:17;5.80;;;1.80;;
24873;SDS011;12945;42.648;23.370;2023-03-29T14:24:47;5.55;;;1.63;;
24873;SDS011;12945;42.648;23.370;2023-03-29T14:27:15;3.78;;;1.70;;
24873;SDS011;12945;42.648;23.370;2023-03-29T14:29:43;7.88;;;2.00;;
24873;SDS011;12945;42.648;23.370;2023-03-29T14:32:12;5.32;;;1.88;;
24873;SDS011;12945;42.648;23.370;2023-03-29T14:34:38;3.10;;;1.80;;
24873;SDS011;12945;42.648;23.370;2023-03-29T14:37:04;4.57;;;2.00;;
24873;SDS011;12945;42.648;23.370;2023-03-29T14:39:31;5.45;;;2.42;;
24873;SDS011;12945;42.648;23.370;2023-03-29T14:41:57;7.15;;;2.38;;
24873;SDS011;12945;42.648;23.370;2023-03-29T14:44:26;4.68;;;2.40;;
24873;SDS011;12945;42.648;23.370;2023-03-29T14:46:52;5.40;;;2.05;;
24873;SDS011;12945;42.648;23.370;2023-03-29T14:49:18;3.75;;;1.95;;
24873;SDS011;12945;42.648;23.370;2023-03-29T14:51:44;5.43;;;2.17;;
24873;SDS011;12945;42.648;23.370;2023-03-29T14:54:24;9.40;;;2.08;;
24873;SDS011;12945;42.648;23.370;2023-03-29T14:59:36;5.07;;;1.73;;
24873;SDS011;12945;42.648;23.370;2023-03-29T15:02:02;4.20;;;2.05;;
24873;SDS011;12945;42.648;23.370;2023-03-29T15:04:31;5.07;;;2.20;;
24873;SDS011;12945;42.648;23.370;2023-03-29T15:07:00;3.78;;;2.03;;
24873;SDS011;12945;42.648;23.370;2023-03-29T15:09:28;3.95;;;1.80;;
24873;SDS011;12945;42.648;23.370;2023-03-29T15:11:54;5.60;;;2.20;;
24873;SDS011;12945;42.648;23.370;2023-03-29T15:14:20;5.30;;;2.10;;
24873;SDS011;12945;42.648;23.370;2023-03-29T15:16:46;6.55;;;2.17;;
24873;SDS011;12945;42.648;23.370;2023-03-29T15:19:13;5.25;;;2.00;;
24873;SDS011;12945;42.648;23.370;2023-03-29T15:21:41;4.72;;;1.83;;
24873;SDS011;12945;42.648;23.370;2023-03-29T15:24:16;4.28;;;1.67;;
24873;SDS011;12945;42.648;23.370;2023-03-29T15:26:42;3.85;;;1.73;;
24873;SDS011;12945;42.648;23.370;2023-03-29T15:31:39;5.20;;;2.42;;
24873;SDS011;12945;42.648;23.370;2023-03-29T15:34:13;4.43;;;2.33;;
24873;SDS011;12945;42.648;23.370;2023-03-29T15:36:48;6.38;;;2.45;;
24873;SDS011;12945;42.648;23.370;2023-03-29T15:39:14;8.50;;;2.42;;
24873;SDS011;12945;42.648;23.370;2023-03-29T15:41:41;11.27;;;3.03;;
24873;SDS011;12945;42.648;23.370;2023-03-29T15:44:06;5.95;;;2.53;;
24873;SDS011;12945;42.648;23.370;2023-03-29T15:46:32;5.57;;;2.40;;
24873;SDS011;12945;42.648;23.370;2023-03-29T15:48:57;6.50;;;2.33;;
24873;SDS011;12945;42.648;23.370;2023-03-29T15:51:23;5.65;;;2.53;;
24873;SDS011;12945;42.648;23.370;2023-03-29T15:53:48;5.88;;;2.40;;
24873;SDS011;12945;42.648;23.370;2023-03-29T15:56:15;6.20;;;2.55;;
24873;SDS011;12945;42.648;23.370;2023-03-29T15:58:41;7.45;;;2.50;;
24873;SDS011;12945;42.648;23.370;2023-03-29T16:03:36;8.00;;;2.25;;
24873;SDS011;12945;42.648;23.370;2023-03-29T16:06:01;5.05;;;1.90;;
24873;SDS011;12945;42.648;23.370;2023-03-29T16:08:27;6.97;;;2.17;;
24873;SDS011;12945;42.648;23.370;2023-03-29T16:10:53;5.15;;;2.50;;
24873;SDS011;12945;42.648;23.370;2023-03-29T16:13:18;5.47;;;2.38;;
24873;SDS011;12945;42.648;23.370;2023-03-29T16:15:43;6.10;;;2.15;;
24873;SDS011;12945;42.648;23.370;2023-03-29T16:18:09;7.28;;;2.53;;
24873;SDS011;12945;42.648;23.370;2023-03-29T16:20:35;8.93;;;3.15;;
24873;SDS011;12945;42.648;23.370;2023-03-29T16:23:01;5.28;;;2.55;;
24873;SDS011;12945;42.648;23.370;2023-03-29T16:25:32;8.30;;;3.33;;
24873;SDS011;12945;42.648;23.370;2023-03-29T16:27:58;7.40;;;2.65;;
24873;SDS011;12945;42.648;23.370;2023-03-29T16:30:23;13.70;;;2.85;;
24873;SDS011;12945;42.648;23.370;2023-03-29T16:32:48;5.30;;;2.60;;
24873;SDS011;12945;42.648;23.370;2023-03-29T16:35:19;5.45;;;2.72;;
24873;SDS011;12945;42.648;23.370;2023-03-29T16:37:45;5.03;;;2.67;;
24873;SDS011;12945;42.648;23.370;2023-03-29T16:40:11;4.45;;;2.28;;
24873;SDS011;12945;42.648;23.370;2023-03-29T16:42:37;6.57;;;2.55;;
24873;SDS011;12945;42.648;23.370;2023-03-29T16:45:02;7.35;;;2.97;;
24873;SDS011;12945;42.648;23.370;2023-03-29T16:47:27;8.02;;;4.43;;
24873;SDS011;12945;42.648;23.370;2023-03-29T16:49:53;6.13;;;2.72;;
24873;SDS011;12945;42.648;23.370;2023-03-29T16:52:18;21.35;;;2.92;;
24873;SDS011;12945;42.648;23.370;2023-03-29T16:54:44;7.75;;;2.90;;
24873;SDS011;12945;42.648;23.370;2023-03-29T16:57:09;7.20;;;3.25;;